River Junction, Iowa
Current Conditions -  °F | °C
As of 6:52 AM on Saturday 25 Oct 2014 (Local Time) from KIOW Reporting Station
Clear Clear  
Wind Chill: 52°   Ceiling: Unl
Heat Index: 52°   Visibility: 10mi
Dew Point: 49°   Wind: 8mph
Humidity: 89%   Direction: 330°NNW
Pressure: 29.99"   Gusts: NA
Location:  41.5156°N, 91.4411°W
Report Text: KIOW 251152Z AUTO 33007KT 10SM CLR 11/09 A2999 RMK AO2 SLP157 70001 T01110094 10117 20072 53009
Loading
Personal Weather Stations






























Interactive Weather Map
Tropical Storm Tracking
New forecast layout! Learn more

10-Day Weather Forecast

Advertisements
Track Severe Weather on mobile